createdAt,value
2018-11-26T00:00:34.841Z,4.00
2018-11-26T00:01:34.856Z,4.00
2018-11-26T00:02:34.867Z,4.00
2018-11-26T00:03:34.883Z,4.00
2018-11-26T00:04:34.898Z,4.00
2018-11-26T00:05:34.912Z,4.00
2018-11-26T00:06:34.927Z,4.00
2018-11-26T00:07:34.943Z,4.00
2018-11-26T00:08:34.958Z,4.00
2018-11-26T00:09:34.973Z,4.00
2018-11-26T00:10:34.987Z,4.00
2018-11-26T00:11:35.002Z,4.00
2018-11-26T00:12:35.018Z,4.00
2018-11-26T00:13:35.034Z,4.00
2018-11-26T00:14:35.047Z,4.00
2018-11-26T00:15:35.061Z,4.00
2018-11-26T00:16:35.077Z,4.00
2018-11-26T00:17:35.093Z,4.00
2018-11-26T00:18:35.106Z,4.00
2018-11-26T00:19:35.123Z,4.00
2018-11-26T00:20:35.141Z,4.00
2018-11-26T00:21:35.154Z,4.00
2018-11-26T00:22:35.167Z,4.00
2018-11-26T00:23:35.181Z,4.00
2018-11-26T00:24:35.198Z,4.00
2018-11-26T00:25:35.216Z,4.00
2018-11-26T00:26:35.227Z,4.00
2018-11-26T00:27:35.242Z,4.00
2018-11-26T00:28:35.257Z,4.00
2018-11-26T00:29:35.271Z,4.00
2018-11-26T00:30:35.290Z,4.00
2018-11-26T00:31:35.301Z,4.00
2018-11-26T00:32:35.317Z,4.00
2018-11-26T00:33:35.331Z,4.00
2018-11-26T00:34:35.347Z,4.00
2018-11-26T00:35:35.362Z,4.00
2018-11-26T00:36:35.377Z,4.00
2018-11-26T00:37:35.393Z,4.00
2018-11-26T00:38:35.407Z,4.00
2018-11-26T00:39:35.422Z,4.00
2018-11-26T00:40:35.437Z,4.00
2018-11-26T00:41:35.453Z,4.00
2018-11-26T00:42:35.467Z,4.00
2018-11-26T00:43:35.488Z,4.00
2018-11-26T00:44:35.498Z,4.00
2018-11-26T00:45:35.513Z,4.00
2018-11-26T00:46:35.526Z,4.00
2018-11-26T00:47:35.541Z,4.00
2018-11-26T00:48:35.558Z,4.00
2018-11-26T00:49:35.574Z,4.00
2018-11-26T00:50:35.592Z,4.00
2018-11-26T00:51:35.601Z,4.00
2018-11-26T00:52:35.616Z,4.00
2018-11-26T00:53:35.632Z,4.00
2018-11-26T00:54:35.655Z,4.00
2018-11-26T00:55:35.661Z,4.00
2018-11-26T00:56:35.677Z,4.00
2018-11-26T00:57:35.692Z,4.00
2018-11-26T00:58:35.707Z,4.00
2018-11-26T00:59:35.721Z,4.00
2018-11-26T01:00:35.736Z,4.00
2018-11-26T01:01:35.752Z,4.00
2018-11-26T01:02:35.765Z,4.00
2018-11-26T01:03:35.781Z,4.00
2018-11-26T01:04:35.797Z,4.00
2018-11-26T01:05:35.811Z,4.00
2018-11-26T01:06:35.826Z,4.00
2018-11-26T01:07:35.841Z,4.00
2018-11-26T01:08:35.856Z,4.00
2018-11-26T01:09:35.870Z,4.00
2018-11-26T01:10:35.886Z,4.00
2018-11-26T01:11:35.901Z,4.00
2018-11-26T01:12:35.916Z,4.00
2018-11-26T01:13:35.931Z,4.00
2018-11-26T01:14:35.945Z,4.00
2018-11-26T01:15:35.960Z,4.00
2018-11-26T01:16:35.975Z,4.00
2018-11-26T01:17:35.991Z,4.00
2018-11-26T01:18:36.005Z,4.00
2018-11-26T01:19:36.020Z,4.00
2018-11-26T01:20:36.037Z,4.00
2018-11-26T01:21:36.052Z,4.00
2018-11-26T01:22:36.065Z,4.00
2018-11-26T01:23:36.080Z,4.00
2018-11-26T01:24:36.095Z,4.00
2018-11-26T01:25:36.149Z,4.00
2018-11-26T01:26:36.124Z,4.00
2018-11-26T01:27:36.140Z,4.00
2018-11-26T01:28:36.154Z,4.00
2018-11-26T01:29:36.170Z,4.00
2018-11-26T01:30:36.183Z,4.00
2018-11-26T01:31:36.199Z,4.00
2018-11-26T01:32:36.215Z,4.00
2018-11-26T01:33:36.231Z,4.00
2018-11-26T01:34:36.242Z,8.00
2018-11-26T01:35:36.259Z,4.00
2018-11-26T01:36:36.274Z,4.00
2018-11-26T01:37:36.288Z,4.00
2018-11-26T01:38:36.306Z,4.00
2018-11-26T01:39:36.319Z,4.00
2018-11-26T01:40:36.336Z,4.00
2018-11-26T01:41:36.350Z,4.00
2018-11-26T01:42:36.363Z,4.00
2018-11-26T01:43:36.381Z,4.00
2018-11-26T01:44:36.393Z,4.00
2018-11-26T01:45:36.409Z,4.00
2018-11-26T01:46:36.423Z,4.00
2018-11-26T01:47:36.438Z,4.00
2018-11-26T01:48:36.453Z,4.00
2018-11-26T01:49:36.477Z,4.00
2018-11-26T01:50:36.482Z,4.00
2018-11-26T01:51:36.497Z,4.00
2018-11-26T01:52:36.516Z,4.00
2018-11-26T01:53:36.528Z,4.00
2018-11-26T01:54:36.542Z,4.00
2018-11-26T01:55:36.558Z,4.00
2018-11-26T01:56:36.571Z,4.00
2018-11-26T01:57:36.588Z,4.00
2018-11-26T01:58:36.604Z,4.00
2018-11-26T01:59:36.617Z,4.00
2018-11-26T02:00:36.632Z,4.00
2018-11-26T02:01:36.649Z,4.00
2018-11-26T02:02:36.661Z,4.00
2018-11-26T02:03:36.679Z,4.00
2018-11-26T02:04:36.694Z,4.00
2018-11-26T02:05:36.709Z,4.00
2018-11-26T02:06:36.721Z,4.00
2018-11-26T02:07:36.740Z,4.00
2018-11-26T02:08:36.750Z,4.00
2018-11-26T02:09:36.766Z,4.00
2018-11-26T02:10:36.781Z,4.00
2018-11-26T02:11:36.796Z,4.00
2018-11-26T02:12:36.811Z,4.00
2018-11-26T02:13:36.826Z,8.00
2018-11-26T02:14:36.840Z,4.00
2018-11-26T02:15:36.856Z,4.00
2018-11-26T02:16:36.871Z,4.00
2018-11-26T02:17:36.886Z,4.00
2018-11-26T02:18:36.901Z,4.00
2018-11-26T02:19:36.917Z,4.00
2018-11-26T02:20:36.933Z,4.00
2018-11-26T02:21:36.945Z,4.00
2018-11-26T02:22:36.960Z,4.00
2018-11-26T02:23:36.975Z,4.00
2018-11-26T02:24:37.009Z,4.00
2018-11-26T02:25:37.006Z,4.00
2018-11-26T02:26:37.020Z,4.00
2018-11-26T02:27:37.035Z,4.00
2018-11-26T02:28:37.051Z,4.00
2018-11-26T02:29:37.066Z,4.00
2018-11-26T02:30:37.080Z,4.00
2018-11-26T02:31:37.095Z,4.00
2018-11-26T02:32:37.110Z,4.00
2018-11-26T02:33:37.126Z,4.00
2018-11-26T02:34:37.140Z,4.00
2018-11-26T02:35:37.155Z,4.00
2018-11-26T02:36:37.171Z,4.00
2018-11-26T02:37:37.239Z,4.00
2018-11-26T02:38:37.200Z,4.00
2018-11-26T02:39:37.215Z,4.00
2018-11-26T02:40:37.231Z,4.00
2018-11-26T02:41:37.251Z,4.00
2018-11-26T02:42:37.262Z,4.00
2018-11-26T02:43:37.275Z,4.00
2018-11-26T02:44:37.290Z,4.00
2018-11-26T02:45:37.306Z,4.00
2018-11-26T02:46:37.320Z,4.00
2018-11-26T02:47:37.336Z,4.00
2018-11-26T02:48:37.350Z,4.00
2018-11-26T02:49:37.366Z,4.00
2018-11-26T02:50:37.382Z,4.00
2018-11-26T02:51:37.401Z,4.00
2018-11-26T02:52:37.411Z,4.00
2018-11-26T02:53:37.431Z,4.00
2018-11-26T02:54:37.441Z,4.00
2018-11-26T02:55:37.456Z,4.00
2018-11-26T02:56:37.473Z,4.00
2018-11-26T02:57:37.486Z,4.00
2018-11-26T02:58:37.513Z,4.00
2018-11-26T02:59:37.516Z,4.00
2018-11-26T03:00:37.533Z,4.00
2018-11-26T03:01:37.547Z,4.00
2018-11-26T03:02:37.561Z,4.00
2018-11-26T03:03:37.576Z,4.00
2018-11-26T03:04:37.592Z,4.00
2018-11-26T03:05:37.607Z,4.00
2018-11-26T03:06:37.621Z,4.00
2018-11-26T03:07:37.637Z,4.00
2018-11-26T03:08:37.652Z,4.00
2018-11-26T03:09:37.669Z,4.00
2018-11-26T03:10:37.680Z,4.00
2018-11-26T03:11:37.696Z,4.00
2018-11-26T03:12:37.716Z,4.00
2018-11-26T03:13:37.726Z,4.00
2018-11-26T03:14:37.742Z,4.00
2018-11-26T03:15:37.756Z,4.00
2018-11-26T03:16:37.772Z,4.00
2018-11-26T03:17:37.789Z,4.00
2018-11-26T03:18:37.803Z,4.00
2018-11-26T03:19:37.817Z,4.00
2018-11-26T03:20:37.835Z,4.00
2018-11-26T03:21:37.848Z,4.00
2018-11-26T03:22:37.862Z,4.00
2018-11-26T03:23:37.879Z,4.00
2018-11-26T03:24:37.891Z,4.00
2018-11-26T03:25:37.908Z,4.00
2018-11-26T03:26:37.922Z,4.00
2018-11-26T03:27:37.938Z,4.00
2018-11-26T03:28:37.952Z,4.00
2018-11-26T03:29:37.967Z,4.00
2018-11-26T03:30:37.981Z,4.00
2018-11-26T03:31:38.000Z,4.00
2018-11-26T03:32:38.014Z,4.00
2018-11-26T03:33:38.040Z,4.00
2018-11-26T03:34:38.043Z,4.00
2018-11-26T03:35:38.059Z,4.00
2018-11-26T03:36:38.074Z,4.00
2018-11-26T03:37:38.089Z,4.00
2018-11-26T03:38:38.105Z,4.00
2018-11-26T03:39:38.119Z,4.00
2018-11-26T03:40:38.145Z,4.00
2018-11-26T03:41:38.149Z,4.00
2018-11-26T03:42:38.165Z,4.00
2018-11-26T03:43:38.186Z,4.00
2018-11-26T03:44:38.197Z,4.00
2018-11-26T03:45:38.211Z,4.00
2018-11-26T03:46:38.225Z,4.00
2018-11-26T03:47:38.243Z,4.00
2018-11-26T03:48:38.254Z,4.00
2018-11-26T03:49:38.270Z,4.00
2018-11-26T03:50:38.285Z,4.00
2018-11-26T03:51:38.323Z,4.00
2018-11-26T03:52:38.316Z,4.00
2018-11-26T03:53:38.331Z,4.00
2018-11-26T03:54:38.356Z,4.00
2018-11-26T03:55:38.361Z,4.00
2018-11-26T03:56:38.376Z,4.00
2018-11-26T03:57:38.394Z,4.00
2018-11-26T03:58:38.406Z,4.00
2018-11-26T03:59:38.424Z,4.00
2018-11-26T04:00:38.437Z,4.00
2018-11-26T04:01:38.453Z,4.00
2018-11-26T04:02:38.466Z,4.00
2018-11-26T04:03:38.483Z,4.00
2018-11-26T04:04:38.497Z,4.00
2018-11-26T04:05:38.511Z,4.00
2018-11-26T04:06:38.527Z,4.00
2018-11-26T04:07:38.559Z,4.00
2018-11-26T04:08:38.558Z,4.00
2018-11-26T04:09:38.575Z,4.00
2018-11-26T04:10:38.588Z,4.00
2018-11-26T04:11:38.604Z,4.00
2018-11-26T04:12:38.618Z,4.00
2018-11-26T04:13:38.635Z,4.00
2018-11-26T04:14:38.649Z,4.00
2018-11-26T04:15:38.664Z,4.00
2018-11-26T04:16:38.684Z,4.00
2018-11-26T04:17:38.697Z,4.00
2018-11-26T04:18:38.709Z,4.00
2018-11-26T04:19:38.725Z,4.00
2018-11-26T04:20:38.740Z,4.00
2018-11-26T04:21:38.763Z,4.00
2018-11-26T04:22:38.780Z,4.00
2018-11-26T04:23:38.787Z,4.00
2018-11-26T04:24:38.800Z,4.00
2018-11-26T04:25:38.816Z,4.00
2018-11-26T04:26:38.833Z,4.00
2018-11-26T04:27:38.846Z,4.00
2018-11-26T04:28:38.862Z,4.00
2018-11-26T04:29:38.877Z,4.00
2018-11-26T04:30:38.892Z,4.00
2018-11-26T04:31:38.907Z,4.00
2018-11-26T04:32:38.925Z,4.00
2018-11-26T04:33:38.938Z,4.00
2018-11-26T04:34:38.952Z,4.00
2018-11-26T04:35:38.968Z,4.00
2018-11-26T04:36:38.984Z,4.00
2018-11-26T04:37:39.005Z,4.00
2018-11-26T04:38:39.014Z,4.00
2018-11-26T04:39:39.028Z,4.00
2018-11-26T04:40:39.044Z,4.00
2018-11-26T04:41:39.062Z,4.00
2018-11-26T04:42:39.083Z,4.00
2018-11-26T04:43:39.090Z,4.00
2018-11-26T04:44:39.105Z,4.00
2018-11-26T04:45:39.120Z,4.00
2018-11-26T04:46:39.135Z,4.00
2018-11-26T04:47:39.151Z,4.00
2018-11-26T04:48:39.165Z,4.00
2018-11-26T04:49:39.183Z,4.00
2018-11-26T04:50:39.197Z,4.00
2018-11-26T04:51:39.210Z,4.00
2018-11-26T04:52:39.227Z,4.00
2018-11-26T04:53:39.244Z,4.00
2018-11-26T04:54:39.258Z,4.00
2018-11-26T04:55:39.272Z,4.00
2018-11-26T04:56:39.288Z,4.00
2018-11-26T04:57:42.542Z,4.00
2018-11-26T04:58:39.318Z,4.00
2018-11-26T04:59:39.333Z,4.00
2018-11-26T05:00:39.349Z,4.00
2018-11-26T05:01:39.364Z,4.00
2018-11-26T05:02:39.381Z,4.00
2018-11-26T05:03:39.394Z,4.00
2018-11-26T05:04:39.409Z,4.00
2018-11-26T05:05:39.424Z,4.00
2018-11-26T05:06:39.449Z,4.00
2018-11-26T05:07:39.456Z,4.00
2018-11-26T05:08:39.472Z,4.00
2018-11-26T05:09:39.485Z,4.00
2018-11-26T05:10:39.501Z,4.00
2018-11-26T05:11:39.515Z,4.00
2018-11-26T05:12:39.531Z,4.00
2018-11-26T05:13:39.550Z,4.00
2018-11-26T05:14:39.561Z,4.00
2018-11-26T05:15:39.578Z,4.00
2018-11-26T05:16:39.590Z,4.00
2018-11-26T05:17:39.607Z,4.00
2018-11-26T05:18:39.623Z,4.00
2018-11-26T05:19:39.636Z,4.00
2018-11-26T05:20:39.653Z,4.00
2018-11-26T05:21:39.668Z,4.00
2018-11-26T05:22:39.683Z,4.00
2018-11-26T05:23:39.698Z,4.00
2018-11-26T05:24:39.712Z,4.00
2018-11-26T05:25:39.729Z,4.00
2018-11-26T05:26:39.746Z,4.00
2018-11-26T05:27:39.763Z,4.00
2018-11-26T05:28:39.773Z,4.00
2018-11-26T05:29:39.789Z,4.00
2018-11-26T05:30:39.806Z,4.00
2018-11-26T05:31:39.821Z,4.00
2018-11-26T05:32:39.835Z,4.00
2018-11-26T05:33:39.851Z,4.00
2018-11-26T05:34:39.865Z,4.00
2018-11-26T05:35:39.880Z,4.00
2018-11-26T05:36:39.896Z,4.00
2018-11-26T05:37:39.912Z,4.00
2018-11-26T05:38:39.926Z,4.00
2018-11-26T05:39:39.941Z,4.00
2018-11-26T05:40:39.957Z,4.00
2018-11-26T05:41:39.972Z,4.00
2018-11-26T05:42:39.986Z,4.00
2018-11-26T05:43:40.002Z,4.00
2018-11-26T05:44:40.352Z,4.00
2018-11-26T05:45:40.033Z,4.00
2018-11-26T05:46:40.049Z,4.00
2018-11-26T05:47:40.064Z,4.00
2018-11-26T05:48:40.079Z,4.00
2018-11-26T05:49:40.095Z,4.00
2018-11-26T05:50:40.111Z,4.00
2018-11-26T05:51:40.124Z,4.00
2018-11-26T05:52:40.169Z,4.00
2018-11-26T05:53:40.155Z,4.00
2018-11-26T05:54:40.170Z,4.00
2018-11-26T05:55:40.184Z,4.00
2018-11-26T05:56:40.205Z,4.00
2018-11-26T05:57:40.224Z,4.00
2018-11-26T05:58:40.234Z,4.00
2018-11-26T05:59:40.246Z,4.00
2018-11-26T06:00:40.262Z,4.00
2018-11-26T06:01:40.277Z,4.00
2018-11-26T06:02:40.302Z,4.00
2018-11-26T06:03:40.309Z,4.00
2018-11-26T06:04:40.323Z,4.00
2018-11-26T06:05:40.338Z,4.00
2018-11-26T06:06:40.353Z,4.00
2018-11-26T06:07:40.368Z,4.00
2018-11-26T06:08:40.384Z,4.00
2018-11-26T06:09:40.400Z,4.00
2018-11-26T06:10:40.414Z,4.00
2018-11-26T06:11:40.430Z,4.00
2018-11-26T06:12:40.445Z,4.00
2018-11-26T06:13:40.459Z,4.00
2018-11-26T06:14:40.474Z,4.00
2018-11-26T06:15:40.491Z,4.00
2018-11-26T06:16:40.506Z,4.00
2018-11-26T06:17:40.521Z,4.00
2018-11-26T06:18:40.536Z,4.00
2018-11-26T06:19:40.552Z,4.00
2018-11-26T06:20:40.567Z,4.00
2018-11-26T06:21:40.583Z,4.00
2018-11-26T06:22:40.597Z,4.00
2018-11-26T06:23:40.612Z,4.00
2018-11-26T06:24:40.627Z,4.00
2018-11-26T06:25:40.646Z,4.00
2018-11-26T06:26:40.657Z,4.00
2018-11-26T06:27:40.674Z,4.00
2018-11-26T06:28:40.689Z,4.00
2018-11-26T06:29:40.705Z,4.00
2018-11-26T06:30:40.719Z,4.00
2018-11-26T06:31:40.735Z,4.00
2018-11-26T06:32:40.750Z,4.00
2018-11-26T06:33:40.766Z,4.00
2018-11-26T06:34:42.475Z,4.00
2018-11-26T06:35:40.796Z,4.00
2018-11-26T06:36:40.811Z,4.00
2018-11-26T06:37:40.826Z,4.00
2018-11-26T06:38:40.842Z,8.00
2018-11-26T06:39:40.856Z,8.00
2018-11-26T06:40:40.872Z,4.00
2018-11-26T06:41:40.889Z,8.00
2018-11-26T06:42:40.903Z,8.00
2018-11-26T06:43:40.918Z,8.00
2018-11-26T06:44:40.934Z,8.00
2018-11-26T06:45:40.949Z,4.00
2018-11-26T06:46:40.963Z,4.00
2018-11-26T06:47:40.979Z,8.00
2018-11-26T06:48:40.994Z,12.00
2018-11-26T06:49:41.011Z,8.00
2018-11-26T06:50:41.025Z,12.00
2018-11-26T06:51:41.040Z,8.00
2018-11-26T06:52:41.056Z,12.00
2018-11-26T06:53:41.071Z,12.00
2018-11-26T06:54:41.085Z,16.00
2018-11-26T06:55:41.101Z,8.00
2018-11-26T06:56:41.118Z,16.00
2018-11-26T06:57:41.133Z,12.00
2018-11-26T06:58:41.146Z,12.00
2018-11-26T06:59:41.163Z,16.00
2018-11-26T07:00:41.178Z,16.00
2018-11-26T07:01:41.192Z,16.00
2018-11-26T07:02:41.210Z,16.00
2018-11-26T07:03:41.224Z,20.00
2018-11-26T07:04:41.239Z,24.00
2018-11-26T07:05:41.254Z,20.00
2018-11-26T07:06:41.269Z,28.00
2018-11-26T07:07:41.285Z,28.00
2018-11-26T07:08:41.302Z,28.00
2018-11-26T07:09:41.318Z,28.00
2018-11-26T07:10:41.331Z,36.00
2018-11-26T07:11:41.346Z,36.00
2018-11-26T07:12:41.362Z,44.00
2018-11-26T07:13:41.381Z,48.00
2018-11-26T07:14:41.391Z,52.00
2018-11-26T07:15:41.407Z,56.00
2018-11-26T07:16:41.422Z,60.00
2018-11-26T07:17:41.438Z,68.00
2018-11-26T07:18:41.454Z,84.00
2018-11-26T07:19:41.467Z,88.00
2018-11-26T07:20:41.488Z,88.00
2018-11-26T07:21:41.499Z,92.00
2018-11-26T07:22:41.515Z,92.00
2018-11-26T07:23:41.530Z,100.00
2018-11-26T07:24:41.545Z,108.00
2018-11-26T07:25:41.560Z,112.00
2018-11-26T07:26:41.579Z,124.00
2018-11-26T07:27:41.595Z,144.00
2018-11-26T07:28:41.605Z,152.00
2018-11-26T07:29:41.620Z,168.00
2018-11-26T07:30:41.636Z,184.00
2018-11-26T07:31:41.651Z,196.00
2018-11-26T07:32:41.666Z,196.00
2018-11-26T07:33:41.682Z,208.00
2018-11-26T07:34:41.697Z,216.00
2018-11-26T07:35:41.711Z,220.00
2018-11-26T07:36:41.728Z,256.00
2018-11-26T07:37:41.746Z,268.00
2018-11-26T07:38:41.758Z,256.00
2018-11-26T07:39:41.772Z,248.00
2018-11-26T07:40:41.788Z,256.00
2018-11-26T07:41:41.804Z,264.00
2018-11-26T07:42:41.818Z,296.00
2018-11-26T07:43:41.836Z,276.00
2018-11-26T07:44:41.850Z,264.00
2018-11-26T07:45:41.865Z,288.00
2018-11-26T07:46:41.879Z,304.00
2018-11-26T07:47:41.895Z,328.00
2018-11-26T07:48:41.911Z,304.00
2018-11-26T07:49:41.926Z,288.00
2018-11-26T07:50:41.945Z,284.00
2018-11-26T07:51:41.956Z,292.00
2018-11-26T07:52:41.972Z,312.00
2018-11-26T07:53:41.987Z,320.00
2018-11-26T07:54:42.002Z,364.00
2018-11-26T07:55:42.018Z,344.00
2018-11-26T07:56:42.032Z,340.00
2018-11-26T07:57:42.050Z,368.00
2018-11-26T07:58:42.067Z,456.00
2018-11-26T07:59:42.078Z,408.00
2018-11-26T08:00:42.094Z,412.00
2018-11-26T08:01:42.109Z,404.00
2018-11-26T08:02:42.125Z,372.00
2018-11-26T08:03:42.141Z,408.00
2018-11-26T08:04:42.155Z,412.00
2018-11-26T08:05:42.216Z,392.00
2018-11-26T08:06:42.188Z,456.00
2018-11-26T08:07:42.200Z,476.00
2018-11-26T08:08:42.217Z,412.00
2018-11-26T08:09:42.396Z,472.00
2018-11-26T08:10:42.249Z,484.00
2018-11-26T08:11:42.261Z,508.00
2018-11-26T08:12:42.277Z,536.00
2018-11-26T08:13:42.295Z,592.00
2018-11-26T08:14:42.307Z,524.00
2018-11-26T08:15:42.323Z,524.00
2018-11-26T08:16:42.338Z,496.00
2018-11-26T08:17:42.356Z,508.00
2018-11-26T08:18:42.367Z,512.00
2018-11-26T08:19:42.383Z,488.00
2018-11-26T08:20:42.400Z,480.00
2018-11-26T08:21:42.415Z,504.00
2018-11-26T08:22:42.430Z,500.00
2018-11-26T08:23:42.444Z,520.00
2018-11-26T08:24:42.461Z,556.00
2018-11-26T08:25:42.475Z,604.00
2018-11-26T08:26:42.491Z,632.00
2018-11-26T08:27:42.509Z,572.00
2018-11-26T08:28:42.526Z,624.00
2018-11-26T08:29:42.537Z,600.00
2018-11-26T08:30:42.550Z,596.00
2018-11-26T08:31:42.569Z,632.00
2018-11-26T08:32:42.583Z,620.00
2018-11-26T08:33:42.598Z,748.00
2018-11-26T08:34:42.612Z,752.00
2018-11-26T08:35:42.628Z,816.00
2018-11-26T08:36:42.644Z,772.00
2018-11-26T08:37:42.659Z,788.00
2018-11-26T08:38:42.673Z,764.00
2018-11-26T08:39:42.689Z,748.00
2018-11-26T08:40:42.704Z,708.00
2018-11-26T08:41:42.719Z,828.00
2018-11-26T08:42:42.734Z,820.00
2018-11-26T08:43:42.750Z,788.00
2018-11-26T08:44:42.765Z,756.00
2018-11-26T08:45:42.881Z,764.00
2018-11-26T08:46:42.795Z,904.00
2018-11-26T08:47:42.811Z,928.00
2018-11-26T08:48:42.826Z,980.00
2018-11-26T08:49:42.842Z,972.00
2018-11-26T08:50:42.856Z,1020.00
2018-11-26T08:51:42.872Z,1040.00
2018-11-26T08:52:42.888Z,1172.00
2018-11-26T08:53:42.902Z,1200.00
2018-11-26T08:54:42.918Z,1152.00
2018-11-26T08:55:42.933Z,1280.00
2018-11-26T08:56:43.199Z,1268.00
2018-11-26T08:57:42.966Z,1244.00
2018-11-26T08:58:42.979Z,1344.00
2018-11-26T08:59:42.995Z,1372.00
2018-11-26T09:00:43.012Z,1388.00
2018-11-26T09:01:43.026Z,1468.00
2018-11-26T09:02:43.039Z,1556.00
2018-11-26T09:03:43.055Z,1576.00
2018-11-26T09:04:43.070Z,1588.00
2018-11-26T09:05:43.087Z,1672.00
2018-11-26T09:06:43.101Z,1704.00
2018-11-26T09:07:43.117Z,1660.00
2018-11-26T09:08:43.133Z,1652.00
2018-11-26T09:09:43.148Z,1692.00
2018-11-26T09:10:43.163Z,1772.00
2018-11-26T09:11:43.178Z,1836.00
2018-11-26T09:12:43.194Z,1780.00
2018-11-26T09:13:43.210Z,1944.00
2018-11-26T09:14:43.225Z,1936.00
2018-11-26T09:15:43.240Z,1800.00
2018-11-26T09:16:43.255Z,1760.00
2018-11-26T09:17:43.271Z,1840.00
2018-11-26T09:18:43.286Z,2040.00
2018-11-26T09:19:43.300Z,2012.00
2018-11-26T09:20:43.317Z,1988.00
2018-11-26T09:21:43.334Z,2080.00
2018-11-26T09:22:43.348Z,1936.00
2018-11-26T09:23:43.364Z,1888.00
2018-11-26T09:24:43.379Z,1840.00
2018-11-26T09:25:43.394Z,1812.00
2018-11-26T09:26:43.411Z,1720.00
2018-11-26T09:27:43.429Z,1792.00
2018-11-26T09:28:43.448Z,1652.00
2018-11-26T09:29:43.457Z,1724.00
2018-11-26T09:30:43.473Z,1700.00
2018-11-26T09:31:43.489Z,1800.00
2018-11-26T09:32:43.504Z,1780.00
2018-11-26T09:33:43.521Z,1744.00
2018-11-26T09:34:43.536Z,1716.00
2018-11-26T09:35:43.551Z,1928.00
2018-11-26T09:36:43.571Z,1952.00
2018-11-26T09:37:43.580Z,1984.00
2018-11-26T09:38:43.598Z,1972.00
2018-11-26T09:39:43.613Z,1868.00
2018-11-26T09:40:43.676Z,1784.00
2018-11-26T09:41:43.645Z,1660.00
2018-11-26T09:42:43.657Z,1704.00
2018-11-26T09:43:43.671Z,1724.00
2018-11-26T09:44:43.687Z,1784.00
2018-11-26T09:45:43.704Z,1744.00
2018-11-26T09:46:43.719Z,1696.00
2018-11-26T09:47:43.735Z,1656.00
2018-11-26T09:48:43.749Z,1640.00
2018-11-26T09:49:43.767Z,1592.00
2018-11-26T09:50:43.781Z,1620.00
2018-11-26T09:51:43.799Z,1672.00
2018-11-26T09:52:43.813Z,1572.00
2018-11-26T09:53:43.833Z,1456.00
2018-11-26T09:54:43.842Z,1604.00
2018-11-26T09:55:43.864Z,1616.00
2018-11-26T09:56:43.875Z,1532.00
2018-11-26T09:57:43.893Z,1540.00
2018-11-26T09:58:43.906Z,1720.00
2018-11-26T09:59:43.921Z,1644.00
2018-11-26T10:00:43.940Z,1536.00
2018-11-26T10:01:43.955Z,1528.00
2018-11-26T10:02:43.968Z,1544.00
2018-11-26T10:03:43.983Z,1640.00
2018-11-26T10:04:44.003Z,1752.00
2018-11-26T10:05:44.052Z,1728.00
2018-11-26T10:06:44.030Z,1732.00
2018-11-26T10:07:44.045Z,1716.00
2018-11-26T10:08:44.066Z,1728.00
2018-11-26T10:09:44.078Z,1684.00
2018-11-26T10:10:44.091Z,1796.00
2018-11-26T10:11:44.107Z,1828.00
2018-11-26T10:12:44.123Z,1836.00
2018-11-26T10:13:44.139Z,2052.00
2018-11-26T10:14:44.153Z,2072.00
2018-11-26T10:15:44.169Z,2072.00
2018-11-26T10:16:44.185Z,2164.00
2018-11-26T10:17:44.203Z,2192.00
2018-11-26T10:18:44.216Z,2176.00
2018-11-26T10:19:44.231Z,2264.00
2018-11-26T10:20:44.247Z,2216.00
2018-11-26T10:21:44.263Z,1980.00
2018-11-26T10:22:44.281Z,1928.00
2018-11-26T10:23:44.293Z,1948.00
2018-11-26T10:24:44.309Z,1972.00
2018-11-26T10:25:44.328Z,2088.00
2018-11-26T10:26:44.341Z,2160.00
2018-11-26T10:27:44.355Z,2156.00
2018-11-26T10:28:44.373Z,2200.00
2018-11-26T10:29:44.387Z,2360.00
2018-11-26T10:30:44.401Z,2372.00
2018-11-26T10:31:44.418Z,2480.00
2018-11-26T10:32:44.434Z,2608.00
2018-11-26T10:33:44.453Z,2784.00
2018-11-26T10:34:44.465Z,2760.00
2018-11-26T10:35:44.481Z,2460.00
2018-11-26T10:36:44.496Z,2212.00
2018-11-26T10:37:44.554Z,2356.00
2018-11-26T10:38:44.527Z,2488.00
2018-11-26T10:39:44.542Z,2756.00
2018-11-26T10:40:44.560Z,2860.00
2018-11-26T10:41:44.574Z,2888.00
2018-11-26T10:42:44.590Z,2856.00
2018-11-26T10:43:44.755Z,2748.00
2018-11-26T10:44:44.621Z,2804.00
2018-11-26T10:45:44.637Z,2804.00
2018-11-26T10:46:44.652Z,2660.00
2018-11-26T10:47:44.667Z,2548.00
2018-11-26T10:48:44.683Z,2616.00
2018-11-26T10:49:44.701Z,2796.00
2018-11-26T10:50:44.717Z,2776.00
2018-11-26T10:51:44.731Z,2672.00
2018-11-26T10:52:44.748Z,2404.00
2018-11-26T10:53:44.912Z,2328.00
2018-11-26T10:54:44.781Z,2424.00
2018-11-26T10:55:44.795Z,2224.00
2018-11-26T10:56:44.808Z,2124.00
2018-11-26T10:57:44.823Z,2108.00
2018-11-26T10:58:44.844Z,2204.00
2018-11-26T10:59:44.853Z,2256.00
2018-11-26T11:00:44.870Z,2264.00
2018-11-26T11:01:44.885Z,2136.00
2018-11-26T11:02:44.904Z,2032.00
2018-11-26T11:03:44.916Z,2152.00
2018-11-26T11:04:47.723Z,2072.00
2018-11-26T11:05:44.947Z,2032.00
2018-11-26T11:06:44.963Z,2096.00
2018-11-26T11:07:44.978Z,2148.00
2018-11-26T11:08:44.994Z,2236.00
2018-11-26T11:09:45.010Z,2300.00
2018-11-26T11:10:45.025Z,2428.00
2018-11-26T11:11:45.040Z,2496.00
2018-11-26T11:12:45.056Z,2600.00
2018-11-26T11:13:45.075Z,2588.00
2018-11-26T11:14:45.088Z,2596.00
2018-11-26T11:15:45.103Z,2476.00
2018-11-26T11:16:45.119Z,2412.00
2018-11-26T11:17:45.136Z,2444.00
2018-11-26T11:18:45.148Z,2384.00
2018-11-26T11:19:45.164Z,2212.00
2018-11-26T11:20:45.180Z,2144.00
2018-11-26T11:21:45.194Z,1984.00
2018-11-26T11:22:45.211Z,1952.00
2018-11-26T11:23:45.226Z,2064.00
2018-11-26T11:24:45.243Z,1948.00
2018-11-26T11:25:45.257Z,1952.00
2018-11-26T11:26:45.273Z,1968.00
2018-11-26T11:27:45.299Z,2140.00
2018-11-26T11:28:45.303Z,2220.00
2018-11-26T11:29:45.317Z,2172.00
2018-11-26T11:30:45.333Z,2192.00
2018-11-26T11:31:45.348Z,2084.00
2018-11-26T11:32:45.364Z,2064.00
2018-11-26T11:33:45.380Z,2136.00
2018-11-26T11:34:45.395Z,2008.00
2018-11-26T11:35:45.411Z,1920.00
2018-11-26T11:36:45.426Z,1884.00
2018-11-26T11:37:45.442Z,2036.00
2018-11-26T11:38:45.457Z,2028.00
2018-11-26T11:39:45.472Z,2204.00
2018-11-26T11:40:45.486Z,2604.00
2018-11-26T11:41:45.504Z,2520.00
2018-11-26T11:42:45.517Z,2436.00
2018-11-26T11:43:45.533Z,2416.00
2018-11-26T11:44:45.548Z,2288.00
2018-11-26T11:45:45.566Z,2116.00
2018-11-26T11:46:45.579Z,2184.00
2018-11-26T11:47:45.598Z,2188.00
2018-11-26T11:48:45.610Z,2088.00
2018-11-26T11:49:45.628Z,2028.00
2018-11-26T11:50:45.645Z,2008.00
2018-11-26T11:51:45.656Z,1840.00
2018-11-26T11:52:45.671Z,1752.00
2018-11-26T11:53:45.714Z,1788.00
2018-11-26T11:54:45.701Z,1988.00
2018-11-26T11:55:45.717Z,2156.00
2018-11-26T11:56:45.737Z,2000.00
2018-11-26T11:57:45.751Z,2040.00
2018-11-26T11:58:45.762Z,2128.00
2018-11-26T11:59:45.778Z,2076.00
2018-11-26T12:00:45.792Z,2104.00
2018-11-26T12:01:45.808Z,2124.00
2018-11-26T12:02:45.822Z,2020.00
2018-11-26T12:03:45.839Z,2016.00
2018-11-26T12:04:45.854Z,1964.00
2018-11-26T12:05:45.870Z,1912.00
2018-11-26T12:06:45.884Z,1912.00
2018-11-26T12:07:45.900Z,1804.00
2018-11-26T12:08:45.915Z,1776.00
2018-11-26T12:09:45.931Z,1828.00
2018-11-26T12:10:45.945Z,1860.00
2018-11-26T12:11:45.960Z,1860.00
2018-11-26T12:12:45.980Z,1840.00
2018-11-26T12:13:45.990Z,1804.00
2018-11-26T12:14:46.008Z,1836.00
2018-11-26T12:15:46.022Z,1920.00
2018-11-26T12:16:46.038Z,2008.00
2018-11-26T12:17:46.052Z,1968.00
2018-11-26T12:18:46.067Z,1912.00
2018-11-26T12:19:46.082Z,1896.00
2018-11-26T12:20:46.099Z,1964.00
2018-11-26T12:21:46.112Z,2028.00
2018-11-26T12:22:46.127Z,1960.00
2018-11-26T12:23:46.142Z,1808.00
2018-11-26T12:24:46.158Z,1804.00
2018-11-26T12:25:46.174Z,1788.00
2018-11-26T12:26:46.187Z,1776.00
2018-11-26T12:27:46.203Z,1832.00
2018-11-26T12:28:46.219Z,1904.00
2018-11-26T12:29:46.234Z,1984.00
2018-11-26T12:30:46.248Z,2056.00
2018-11-26T12:31:46.264Z,2184.00
2018-11-26T12:32:46.282Z,2148.00
2018-11-26T12:33:46.297Z,2156.00
2018-11-26T12:34:46.309Z,2124.00
2018-11-26T12:35:46.324Z,2120.00
2018-11-26T12:36:46.341Z,2044.00
2018-11-26T12:37:46.356Z,1956.00
2018-11-26T12:38:46.370Z,1892.00
2018-11-26T12:39:46.635Z,1788.00
2018-11-26T12:40:46.400Z,1700.00
2018-11-26T12:41:46.417Z,1640.00
2018-11-26T12:42:46.430Z,1556.00
2018-11-26T12:43:47.128Z,1548.00
2018-11-26T12:44:46.465Z,1512.00
2018-11-26T12:45:46.476Z,1436.00
2018-11-26T12:46:46.491Z,1516.00
2018-11-26T12:47:46.506Z,1636.00